Time;durP1;ratioP1;P1;durP2;ratioP2;P2;SDS_P1;SDS_P2;PMS_P1;PMS_P2;Temp;Humidity;BMP_temperature;BMP_pressure;BME280_temperature;BME280_humidity;BME280_pressure;Samples;Min_cycle;Max_cycle;Signal;HPM_P1;HPM_P2
2021/04/23 00:00:00;;;;;;;3.92;2.47;;;;;;;10.20;60.99;98474.91;5059013;28;45276;-89
2021/04/23 00:02:26;;;;;;;5.80;2.30;;;;;;;10.15;61.17;98478.97;5059018;28;45358;-90
2021/04/23 00:04:51;;;;;;;3.92;2.67;;;;;;;10.18;62.17;98478.69;5063739;28;45431;-89
2021/04/23 00:07:16;;;;;;;2.78;2.22;;;;;;;10.11;61.26;98475.75;5066203;28;45343;-89
2021/04/23 00:09:42;;;;;;;3.85;2.90;;;;;;;10.22;61.26;98486.22;5058819;28;45482;-89
2021/04/23 00:12:12;;;;;;;3.83;2.67;;;;;;;10.14;61.61;98486.09;5061158;28;45354;-89
2021/04/23 00:14:47;;;;;;;7.00;2.88;;;;;;;10.08;61.73;98484.88;5086802;27;45240;-89
2021/04/23 00:17:13;;;;;;;4.13;2.50;;;;;;;10.00;61.50;98483.94;5064607;27;45277;-88
2021/04/23 00:19:40;;;;;;;2.63;2.05;;;;;;;10.00;61.28;98490.09;5074252;28;45265;-88
2021/04/23 00:22:07;;;;;;;2.60;2.05;;;;;;;10.08;60.67;98492.00;5068167;28;45541;-88
2021/04/23 00:24:34;;;;;;;4.25;2.30;;;;;;;10.07;62.03;98495.63;5061293;28;46957;-89
2021/04/23 00:26:59;;;;;;;3.80;2.25;;;;;;;9.91;62.22;98488.31;5069998;28;45375;-87
2021/04/23 00:29:25;;;;;;;3.75;2.40;;;;;;;10.06;61.97;98488.66;5078786;27;45335;-88
2021/04/23 00:34:37;;;;;;;3.17;2.35;;;;;;;10.06;62.60;98499.28;5058355;27;45734;-88
2021/04/23 00:37:03;;;;;;;16.58;10.27;;;;;;;10.00;62.12;98495.41;5073546;27;45959;-90
2021/04/23 00:39:29;;;;;;;15.48;10.13;;;;;;;9.97;60.83;98494.84;5069131;28;45277;-87
2021/04/23 00:41:55;;;;;;;4.72;3.17;;;;;;;9.95;61.17;98496.81;5066565;27;45534;-90
2021/04/23 00:44:20;;;;;;;4.10;3.05;;;;;;;9.91;62.26;98496.28;5078118;27;46419;-90
2021/04/23 00:46:46;;;;;;;3.20;2.67;;;;;;;9.97;61.39;98500.16;5060863;27;45254;-89
2021/04/23 00:49:12;;;;;;;3.47;2.50;;;;;;;9.91;62.06;98514.88;5077671;28;45334;-90
2021/04/23 00:51:43;;;;;;;4.55;2.75;;;;;;;9.88;63.54;98502.72;5062166;27;45330;-91
2021/04/23 00:54:10;;;;;;;3.15;2.53;;;;;;;9.88;63.17;98494.75;5058939;28;45627;-90
2021/04/23 00:56:38;;;;;;;6.10;2.92;;;;;;;10.02;61.86;98501.41;5070050;28;45482;-89
2021/04/23 00:59:05;;;;;;;4.50;3.10;;;;;;;10.14;60.35;98503.88;5058423;28;45420;-88
2021/04/23 01:01:36;;;;;;;3.70;2.92;;;;;;;10.20;60.77;98497.97;5063396;28;45473;-89
2021/04/23 01:04:05;;;;;;;4.18;3.05;;;;;;;10.21;60.42;98505.81;5058068;28;48345;-90
2021/04/23 01:06:33;;;;;;;4.45;3.35;;;;;;;10.15;60.75;98505.56;5071581;28;45364;-89
2021/04/23 01:09:04;;;;;;;5.10;3.17;;;;;;;10.12;61.04;98505.84;5058116;28;45260;-89
2021/04/23 01:11:30;;;;;;;3.97;2.90;;;;;;;10.02;61.55;98511.19;5065084;28;45375;-89
2021/04/23 01:13:55;;;;;;;5.18;2.80;;;;;;;9.99;61.93;98514.13;5086744;27;47405;-89
2021/04/23 01:16:23;;;;;;;4.78;3.10;;;;;;;9.92;62.28;98517.38;5077384;28;45364;-89
2021/04/23 01:18:51;;;;;;;4.75;2.95;;;;;;;9.84;62.37;98517.25;5078645;27;45220;-90
2021/04/23 01:21:20;;;;;;;4.82;3.55;;;;;;;9.91;62.27;98523.66;5058971;28;45497;-89
2021/04/23 01:23:47;;;;;;;4.72;3.20;;;;;;;9.90;61.98;98516.69;5068869;28;48135;-89
2021/04/23 01:26:14;;;;;;;5.72;3.60;;;;;;;9.86;63.90;98528.59;5070030;27;45448;-90
2021/04/23 01:28:42;;;;;;;4.80;3.50;;;;;;;9.69;64.97;98518.72;5056182;28;45287;-89
2021/04/23 01:31:10;;;;;;;5.15;3.25;;;;;;;9.59;63.44;98521.38;5057607;28;45367;-87
2021/04/23 01:33:37;;;;;;;4.65;3.60;;;;;;;9.68;63.61;98527.66;5057352;28;45254;-89
2021/04/23 01:36:05;;;;;;;5.85;3.80;;;;;;;9.69;62.79;98524.03;5069549;27;45222;-89
2021/04/23 01:38:31;;;;;;;4.97;3.30;;;;;;;9.78;63.00;98531.97;5061052;27;45438;-90
2021/04/23 01:40:57;;;;;;;4.75;3.33;;;;;;;9.54;64.89;98534.25;5058007;28;45277;-91
2021/04/23 01:43:22;;;;;;;6.70;3.90;;;;;;;9.41;64.65;98527.41;5057881;28;45331;-90
2021/04/23 01:45:48;;;;;;;5.15;3.72;;;;;;;9.43;65.19;98529.94;5063290;28;45406;-89
2021/04/23 01:48:16;;;;;;;5.80;3.53;;;;;;;9.34;65.04;98534.28;5061475;28;45249;-91
2021/04/23 01:50:42;;;;;;;6.00;3.58;;;;;;;9.38;64.56;98534.84;5069494;28;46152;-92
2021/04/23 01:53:08;;;;;;;4.90;3.65;;;;;;;9.27;65.83;98531.34;5072932;28;47416;-91
2021/04/23 01:55:34;;;;;;;8.05;5.10;;;;;;;9.37;65.40;98533.19;5067963;27;45172;-91
2021/04/23 01:58:00;;;;;;;6.28;4.30;;;;;;;9.33;66.53;98535.25;5057681;28;45273;-91
2021/04/23 02:00:33;;;;;;;4.85;3.90;;;;;;;9.44;65.28;98535.09;5058346;28;45289;-88
2021/04/23 02:03:02;;;;;;;5.05;3.67;;;;;;;9.45;65.93;98538.59;5076350;28;48484;-91
2021/04/23 02:05:29;;;;;;;4.95;3.58;;;;;;;9.44;65.05;98543.06;5060409;28;45450;-91
2021/04/23 02:07:55;;;;;;;4.55;3.60;;;;;;;9.24;65.11;98546.72;5061326;28;45448;-90
2021/04/23 02:10:28;;;;;;;6.13;3.53;;;;;;;9.27;66.29;98543.78;5062670;28;45346;-90
2021/04/23 02:12:54;;;;;;;5.75;3.90;;;;;;;9.19;65.72;98549.78;5066471;27;46152;-92
2021/04/23 02:15:21;;;;;;;5.30;4.15;;;;;;;9.17;65.62;98543.78;5090310;27;45328;-91
2021/04/23 02:17:47;;;;;;;8.05;4.63;;;;;;;9.19;67.04;98544.47;5062457;28;45425;-91
2021/04/23 02:20:23;;;;;;;7.22;4.30;;;;;;;9.27;66.06;98557.06;5060014;28;45297;-91
2021/04/23 02:22:50;;;;;;;7.05;4.55;;;;;;;9.24;67.20;98552.84;5063311;28;46071;-90
2021/04/23 02:25:18;;;;;;;5.82;4.07;;;;;;;9.12;65.80;98556.63;5076408;28;45425;-90
2021/04/23 02:27:45;;;;;;;6.30;4.10;;;;;;;9.15;67.58;98554.53;5060808;28;45242;-91
2021/04/23 02:30:21;;;;;;;5.03;4.03;;;;;;;9.10;65.91;98555.94;5061057;28;45336;-91
2021/04/23 02:32:47;;;;;;;7.40;4.40;;;;;;;9.03;66.65;98553.00;5060890;28;45470;-91
2021/04/23 02:35:15;;;;;;;6.22;3.95;;;;;;;8.90;67.85;98548.81;5066308;27;45355;-91
2021/04/23 02:37:40;;;;;;;6.90;4.45;;;;;;;8.82;67.51;98561.88;5071884;27;45217;-92
2021/04/23 02:40:09;;;;;;;5.35;4.25;;;;;;;8.81;66.78;98559.41;5060239;28;45371;-88
2021/04/23 02:42:35;;;;;;;6.70;4.07;;;;;;;8.81;67.21;98554.91;5061026;28;45510;-92
2021/04/23 02:45:01;;;;;;;5.57;4.03;;;;;;;8.83;67.42;98560.91;5072946;28;45218;-89
2021/04/23 02:47:27;;;;;;;5.93;4.38;;;;;;;8.82;67.68;98564.53;5061673;28;45448;-93
2021/04/23 02:49:52;;;;;;;4.38;3.70;;;;;;;8.97;67.80;98566.81;5074864;28;45273;-90
2021/04/23 02:52:18;;;;;;;7.20;4.60;;;;;;;8.88;68.76;98563.16;5060937;28;46235;-90
2021/04/23 02:54:44;;;;;;;6.75;3.95;;;;;;;8.81;67.33;98578.78;5071519;28;45242;-90
2021/04/23 02:57:09;;;;;;;5.40;4.10;;;;;;;8.83;66.29;98565.41;5072579;27;45258;-91
2021/04/23 02:59:35;;;;;;;8.13;4.40;;;;;;;8.73;68.71;98568.88;5060298;28;45626;-91
2021/04/23 03:02:01;;;;;;;6.05;4.00;;;;;;;8.66;68.19;98565.09;5060272;28;46041;-91
2021/04/23 03:04:27;;;;;;;8.23;4.03;;;;;;;8.60;67.65;98570.94;5070609;28;45397;-89
2021/04/23 03:06:54;;;;;;;6.93;4.47;;;;;;;8.54;67.50;98571.47;5079419;28;45459;-91
2021/04/23 03:09:19;;;;;;;7.70;4.30;;;;;;;8.56;67.22;98565.06;5079209;28;45552;-91
2021/04/23 03:11:45;;;;;;;5.63;4.45;;;;;;;8.54;69.18;98574.13;5059655;28;45474;-90
2021/04/23 03:14:11;;;;;;;7.97;4.22;;;;;;;8.53;68.79;98572.47;5086242;27;45298;-92
2021/04/23 03:16:38;;;;;;;5.40;3.85;;;;;;;8.55;67.63;98571.34;5071968;28;45436;-86
2021/04/23 03:19:11;;;;;;;5.60;4.13;;;;;;;8.65;67.94;98579.31;5059411;28;45214;-89
2021/04/23 03:21:36;;;;;;;5.15;3.83;;;;;;;8.63;68.37;98568.00;5057764;28;47146;-88
2021/04/23 03:24:02;;;;;;;6.10;4.00;;;;;;;8.54;70.01;98585.56;5069509;28;45217;-89
2021/04/23 03:26:28;;;;;;;10.55;6.65;;;;;;;8.45;69.52;98581.91;5064214;28;45325;-87
2021/04/23 03:28:53;;;;;;;10.50;6.15;;;;;;;8.40;69.94;98588.56;5062104;28;45228;-88
2021/04/23 03:31:20;;;;;;;7.13;5.30;;;;;;;8.37;69.92;98573.75;5059088;28;45553;-89
2021/04/23 03:33:46;;;;;;;6.57;4.97;;;;;;;8.33;70.88;98580.28;5059001;28;45279;-88
2021/04/23 03:36:12;;;;;;;5.85;4.20;;;;;;;8.26;71.95;98590.59;5072508;27;45339;-88
2021/04/23 03:38:40;;;;;;;5.40;3.58;;;;;;;8.11;70.11;98581.31;5062056;27;45554;-86
2021/04/23 03:41:12;;;;;;;7.05;4.15;;;;;;;8.18;71.07;98580.66;5057674;28;47294;-89
2021/04/23 03:43:38;;;;;;;5.72;3.88;;;;;;;8.17;71.25;98578.97;5070997;28;45487;-88
2021/04/23 03:46:05;;;;;;;5.13;3.80;;;;;;;8.11;71.97;98576.84;5059139;28;45261;-88
2021/04/23 03:48:30;;;;;;;6.05;3.50;;;;;;;8.04;71.76;98581.00;5062074;28;45463;-87
2021/04/23 03:50:56;;;;;;;5.85;3.78;;;;;;;8.04;72.53;98586.31;5069584;27;46405;-90
2021/04/23 03:53:21;;;;;;;5.15;3.75;;;;;;;8.08;72.47;98581.59;5059196;28;45233;-91
2021/04/23 03:55:52;;;;;;;9.18;4.47;;;;;;;8.13;71.66;98584.69;5069981;28;45277;-91
2021/04/23 03:58:20;;;;;;;5.30;3.60;;;;;;;8.07;71.32;98591.34;5061641;28;45292;-90
2021/04/23 04:00:54;;;;;;;4.70;3.83;;;;;;;8.03;72.23;98600.50;5059172;28;47085;-89
2021/04/23 04:03:21;;;;;;;4.53;3.30;;;;;;;8.12;70.74;98589.13;5058786;28;45340;-90
2021/04/23 04:05:48;;;;;;;4.78;3.67;;;;;;;8.13;71.27;98600.56;5071654;28;45228;-90
2021/04/23 04:08:14;;;;;;;6.18;3.80;;;;;;;8.12;71.77;98597.06;5058903;27;45264;-90
2021/04/23 04:10:41;;;;;;;3.88;3.22;;;;;;;8.23;69.36;98604.09;5058541;28;46476;-90
2021/04/23 04:13:08;;;;;;;5.45;3.47;;;;;;;8.25;69.71;98609.25;5080076;27;45360;-90
2021/04/23 04:15:35;;;;;;;5.50;3.65;;;;;;;8.17;70.12;98605.47;5085988;27;45494;-89
2021/04/23 04:18:00;;;;;;;4.20;3.35;;;;;;;8.17;70.41;98616.06;5058774;28;45249;-89
2021/04/23 04:20:28;;;;;;;5.82;3.80;;;;;;;8.06;70.86;98610.03;5060845;28;45373;-84
2021/04/23 04:22:54;;;;;;;5.78;3.40;;;;;;;8.18;69.61;98612.44;5072108;27;45435;-87
2021/04/23 04:25:25;;;;;;;6.88;3.42;;;;;;;8.27;69.33;98617.91;5056911;28;45299;-87
2021/04/23 04:27:51;;;;;;;7.65;4.00;;;;;;;8.30;69.88;98617.66;5058347;28;45345;-87
2021/04/23 04:30:18;;;;;;;5.68;3.72;;;;;;;8.31;68.78;98616.69;5056752;28;48475;-88
2021/04/23 04:32:43;;;;;;;6.20;3.80;;;;;;;8.37;68.92;98618.78;5059130;28;45450;-91
2021/04/23 04:35:09;;;;;;;6.75;3.47;;;;;;;8.27;69.88;98628.50;5063736;27;45225;-90
2021/04/23 04:37:35;;;;;;;4.85;3.80;;;;;;;8.26;69.31;98630.34;5070902;27;45450;-91
2021/04/23 04:40:00;;;;;;;5.57;3.78;;;;;;;8.26;70.11;98629.47;5058873;28;45571;-91
2021/04/23 04:42:28;;;;;;;5.30;4.07;;;;;;;8.23;69.01;98635.06;5058714;28;45213;-89
2021/04/23 04:45:00;;;;;;;5.25;3.80;;;;;;;8.38;67.54;98646.97;5058976;28;45426;-91
2021/04/23 04:47:26;;;;;;;6.35;4.18;;;;;;;8.42;68.37;98642.25;5064385;28;45239;-91
2021/04/23 04:49:51;;;;;;;6.97;4.20;;;;;;;8.41;68.42;98649.38;5072080;28;45385;-91
2021/04/23 04:52:17;;;;;;;5.53;4.10;;;;;;;8.31;70.20;98656.44;5075963;28;45472;-91
2021/04/23 04:54:42;;;;;;;5.80;3.70;;;;;;;8.28;70.18;98660.19;5064846;27;45314;-90
2021/04/23 04:57:08;;;;;;;6.45;4.35;;;;;;;8.25;69.79;98662.25;5070647;28;45501;-90
2021/04/23 04:59:33;;;;;;;6.38;4.50;;;;;;;8.21;69.99;98661.69;5058131;28;45450;-90
2021/04/23 05:01:59;;;;;;;5.38;4.00;;;;;;;8.16;70.67;98667.38;5058464;28;45285;-89
2021/04/23 05:04:24;;;;;;;5.25;4.20;;;;;;;8.22;69.74;98667.81;5058023;28;45369;-91
2021/04/23 05:06:49;;;;;;;5.50;4.07;;;;;;;8.39;69.48;98677.81;5075414;28;45377;-90
2021/04/23 05:09:15;;;;;;;6.10;4.10;;;;;;;8.34;69.71;98669.41;5063493;28;47290;-89
2021/04/23 05:11:41;;;;;;;5.95;4.35;;;;;;;8.28;70.40;98680.53;5063811;27;45387;-89
2021/04/23 05:14:06;;;;;;;5.57;3.90;;;;;;;8.24;71.54;98687.94;5083739;27;45388;-89
2021/04/23 05:16:32;;;;;;;7.47;4.30;;;;;;;8.32;70.46;98687.25;5063593;27;45396;-89
2021/04/23 05:18:57;;;;;;;7.53;4.00;;;;;;;8.31;70.38;98685.56;5057353;28;46569;-88
2021/04/23 05:21:24;;;;;;;6.35;4.28;;;;;;;8.31;70.80;98689.09;5068048;28;45363;-89
2021/04/23 05:23:49;;;;;;;8.02;4.55;;;;;;;8.35;71.24;98694.13;5076362;28;45569;-89
2021/04/23 05:26:15;;;;;;;7.38;4.53;;;;;;;8.21;71.93;98692.63;5071571;28;45432;-89
2021/04/23 05:28:40;;;;;;;6.78;4.53;;;;;;;8.22;71.81;98691.66;5068808;28;45438;-90
2021/04/23 05:31:06;;;;;;;7.32;4.80;;;;;;;8.14;72.65;98693.16;5057271;28;45224;-89
2021/04/23 05:33:31;;;;;;;6.18;4.63;;;;;;;8.11;72.95;98695.25;5057181;28;45383;-90
2021/04/23 05:35:57;;;;;;;5.50;4.28;;;;;;;8.13;72.45;98693.28;5069460;27;45621;-90
2021/04/23 05:38:22;;;;;;;8.68;5.80;;;;;;;8.14;72.37;98698.44;5068003;28;46419;-90
2021/04/23 05:40:50;;;;;;;6.45;4.35;;;;;;;8.10;72.11;98693.56;5078831;28;45744;-90
2021/04/23 05:43:17;;;;;;;7.95;4.43;;;;;;;8.18;73.04;98699.03;5066219;28;45424;-89
2021/04/23 05:45:46;;;;;;;5.60;4.43;;;;;;;8.25;72.09;98700.19;5068403;27;45397;-90
2021/04/23 05:48:14;;;;;;;7.18;4.78;;;;;;;8.28;72.09;98697.28;5064872;28;47762;-89
2021/04/23 05:50:40;;;;;;;8.70;4.53;;;;;;;8.26;71.64;98701.03;5068567;28;45409;-89
2021/04/23 05:53:06;;;;;;;6.47;4.47;;;;;;;8.36;71.96;98711.69;5060307;28;45348;-90
2021/04/23 05:55:32;;;;;;;5.90;4.13;;;;;;;8.35;72.65;98710.03;5066824;28;45244;-89
2021/04/23 05:57:59;;;;;;;6.82;4.70;;;;;;;8.26;72.54;98719.56;5075451;28;46904;-89
2021/04/23 06:00:27;;;;;;;7.05;5.00;;;;;;;8.35;72.17;98716.16;5064369;28;45638;-88
2021/04/23 06:02:54;;;;;;;5.93;4.47;;;;;;;8.23;71.52;98706.59;5072058;28;45401;-88
2021/04/23 06:05:21;;;;;;;6.45;4.78;;;;;;;8.42;72.47;98721.78;5066203;27;45557;-87
2021/04/23 06:07:46;;;;;;;6.32;5.03;;;;;;;8.36;73.07;98722.28;5072349;28;45364;-90
2021/04/23 06:10:14;;;;;;;7.13;5.05;;;;;;;8.20;73.16;98728.03;5074976;28;45291;-86
2021/04/23 06:12:40;;;;;;;5.60;4.70;;;;;;;8.20;72.30;98730.69;5063522;27;45219;-87
2021/04/23 06:15:07;;;;;;;6.45;4.80;;;;;;;8.17;73.64;98724.69;5070912;27;45690;-87
2021/04/23 06:17:33;;;;;;;6.00;4.57;;;;;;;8.01;74.31;98724.28;5063222;28;47766;-88
2021/04/23 06:19:58;;;;;;;6.85;4.45;;;;;;;8.28;73.83;98720.28;5071850;28;45446;-87
2021/04/23 06:22:24;;;;;;;7.65;4.80;;;;;;;8.21;74.77;98724.44;5083809;27;45443;-90
2021/04/23 06:24:52;;;;;;;5.30;4.00;;;;;;;8.21;74.47;98729.72;5062111;28;45534;-90
2021/04/23 06:27:18;;;;;;;5.90;4.22;;;;;;;8.23;74.10;98725.13;5065791;28;45497;-89
2021/04/23 06:29:44;;;;;;;5.68;4.18;;;;;;;8.27;74.48;98721.25;5067041;28;45471;-92
2021/04/23 06:32:10;;;;;;;7.07;4.22;;;;;;;8.38;73.71;98720.34;5079447;28;45324;-83
2021/04/23 06:34:36;;;;;;;6.13;4.28;;;;;;;8.37;73.94;98716.03;5075183;28;45476;-88
2021/04/23 06:37:02;;;;;;;6.10;4.25;;;;;;;8.47;73.32;98725.72;5062636;27;46441;-85
2021/04/23 06:39:28;;;;;;;5.90;4.20;;;;;;;8.49;71.04;98727.41;5071422;28;45478;-83
2021/04/23 06:41:54;;;;;;;5.35;4.60;;;;;;;8.61;72.28;98729.03;5056669;28;45565;-85
2021/04/23 06:44:19;;;;;;;5.78;4.47;;;;;;;8.68;72.19;98731.97;5076855;27;45398;-83
2021/04/23 06:46:45;;;;;;;5.95;3.88;;;;;;;8.80;71.15;98727.44;5066161;27;45486;-87
2021/04/23 06:49:12;;;;;;;6.53;4.07;;;;;;;8.93;71.60;98724.56;5059623;28;45383;-86
2021/04/23 06:51:38;;;;;;;6.25;3.97;;;;;;;8.94;70.27;98716.47;5055922;28;45527;-82
2021/04/23 06:54:05;;;;;;;5.47;4.00;;;;;;;8.90;71.85;98715.91;5071899;28;45660;-82
2021/04/23 06:56:31;;;;;;;6.15;4.43;;;;;;;8.92;72.19;98717.59;5061968;28;45982;-80
2021/04/23 06:58:56;;;;;;;5.65;4.28;;;;;;;9.08;71.71;98715.25;5071865;27;45388;-81
2021/04/23 07:01:22;;;;;;;4.78;3.95;;;;;;;8.96;71.78;98719.81;5067553;28;45539;-81
2021/04/23 07:03:47;;;;;;;5.40;3.80;;;;;;;9.04;72.48;98719.16;5069752;27;45433;-82
2021/04/23 07:06:13;;;;;;;6.65;4.32;;;;;;;9.19;70.89;98715.16;5060204;28;47399;-80
2021/04/23 07:08:39;;;;;;;8.25;5.57;;;;;;;9.31;69.12;98715.91;5062614;27;45700;-80
2021/04/23 07:11:05;;;;;;;6.60;5.03;;;;;;;9.41;68.91;98718.53;5065411;28;45540;-81
2021/04/23 07:13:31;;;;;;;5.70;4.60;;;;;;;9.51;69.64;98720.38;5060359;28;45444;-81
2021/04/23 07:15:57;;;;;;;8.63;5.38;;;;;;;9.61;67.67;98719.41;5071092;28;45423;-80
2021/04/23 07:18:22;;;;;;;9.18;6.00;;;;;;;9.66;67.22;98715.50;5063006;28;45174;-78
2021/04/23 07:20:48;;;;;;;7.43;5.63;;;;;;;9.67;68.00;98711.88;5058999;27;45485;-80
2021/04/23 07:23:13;;;;;;;8.90;5.93;;;;;;;9.75;66.27;98715.53;5065807;28;45268;-79
2021/04/23 07:25:39;;;;;;;8.18;5.57;;;;;;;9.90;66.54;98709.78;5072829;28;45596;-79
2021/04/23 07:28:05;;;;;;;11.45;6.38;;;;;;;9.95;66.71;98714.66;5064093;27;45667;-80
2021/04/23 07:30:34;;;;;;;9.13;6.00;;;;;;;10.08;66.18;98716.06;5058960;28;45271;-79
2021/04/23 07:33:00;;;;;;;10.63;5.55;;;;;;;10.05;64.57;98716.34;5065702;28;45510;-80
2021/04/23 07:35:27;;;;;;;10.20;5.60;;;;;;;10.32;64.36;98712.09;5069796;27;46096;-80
2021/04/23 07:37:55;;;;;;;8.48;5.60;;;;;;;10.47;64.12;98714.34;5072482;28;45229;-81
2021/04/23 07:40:21;;;;;;;10.80;7.28;;;;;;;10.64;62.37;98712.75;5074050;28;45285;-79
2021/04/23 07:42:47;;;;;;;9.88;7.18;;;;;;;10.90;62.31;98714.75;5064125;28;45652;-80
2021/04/23 07:45:14;;;;;;;12.02;6.20;;;;;;;10.92;63.01;98713.63;5064653;28;48112;-80
2021/04/23 07:47:40;;;;;;;12.35;7.40;;;;;;;11.15;60.10;98707.91;5063760;28;45309;-79
2021/04/23 07:50:08;;;;;;;11.73;8.13;;;;;;;11.29;61.42;98711.91;5076495;27;45355;-79
2021/04/23 07:52:33;;;;;;;12.65;7.85;;;;;;;12.26;58.04;98712.16;5075325;27;45478;-80
2021/04/23 07:55:01;;;;;;;11.60;7.10;;;;;;;12.64;56.79;98706.56;5057746;28;46038;-80
2021/04/23 07:57:27;;;;;;;11.35;7.80;;;;;;;12.21;59.11;98709.13;5071392;28;45454;-80
2021/04/23 07:59:53;;;;;;;11.48;7.57;;;;;;;12.46;58.98;98703.13;5068585;28;45395;-80
2021/04/23 08:02:19;;;;;;;13.40;8.40;;;;;;;12.87;55.65;98699.84;5062037;28;45664;-80
2021/04/23 08:04:44;;;;;;;10.88;7.40;;;;;;;13.65;55.30;98697.94;5073230;28;45250;-80
2021/04/23 08:07:11;;;;;;;10.23;6.97;;;;;;;14.54;52.47;98697.25;5057125;28;45339;-80
2021/04/23 08:09:37;;;;;;;11.43;7.15;;;;;;;14.41;51.41;98690.59;5062618;28;45330;-81
2021/04/23 08:12:04;;;;;;;10.27;6.85;;;;;;;14.16;52.94;98695.13;5059236;27;45437;-80
2021/04/23 08:14:29;;;;;;;11.88;7.40;;;;;;;13.88;53.90;98694.63;5072696;28;48217;-80
2021/04/23 08:16:54;;;;;;;10.20;7.22;;;;;;;17.15;45.50;98702.94;5056626;28;45408;-80
2021/04/23 08:19:20;;;;;;;13.10;7.60;;;;;;;21.63;34.96;98701.44;5062665;28;45412;-79
2021/04/23 08:21:46;;;;;;;10.32;7.05;;;;;;;20.06;37.51;98696.66;5071554;28;45350;-80
2021/04/23 08:24:12;;;;;;;11.40;7.03;;;;;;;22.97;33.63;98700.41;5074760;27;46353;-79
2021/04/23 08:26:38;;;;;;;10.38;7.28;;;;;;;28.49;26.04;98692.78;5059803;28;45454;-81
2021/04/23 08:29:05;;;;;;;9.43;6.60;;;;;;;28.50;24.85;98688.97;5075586;28;45359;-80
2021/04/23 08:31:30;;;;;;;11.35;7.43;;;;;;;26.90;26.00;98689.00;5074647;27;45285;-80
2021/04/23 08:33:56;;;;;;;9.02;6.85;;;;;;;29.45;23.48;98692.75;5057261;28;46161;-80
2021/04/23 08:36:21;;;;;;;11.07;6.82;;;;;;;31.89;19.50;98690.38;5077052;27;45365;-80
2021/04/23 08:38:47;;;;;;;9.55;6.68;;;;;;;34.74;16.48;98693.06;5067678;28;45420;-80
2021/04/23 08:41:12;;;;;;;14.27;6.32;;;;;;;35.79;15.27;98693.34;5075830;27;45561;-81
2021/04/23 08:43:38;;;;;;;8.13;5.72;;;;;;;37.28;13.50;98694.44;5069850;27;45412;-80
2021/04/23 08:46:04;;;;;;;9.20;6.30;;;;;;;38.02;13.53;98701.06;5072533;28;45564;-80
2021/04/23 08:48:30;;;;;;;9.13;6.00;;;;;;;37.19;13.76;98695.25;5058479;28;45288;-83
2021/04/23 08:50:57;;;;;;;6.85;5.68;;;;;;;38.53;11.32;98687.41;5056791;28;45572;-81
2021/04/23 08:53:27;;;;;;;7.15;5.78;;;;;;;38.87;10.65;98695.91;5057262;28;45395;-80
2021/04/23 08:55:56;;;;;;;8.32;6.00;;;;;;;40.35;10.61;98694.38;5058038;28;45549;-84
2021/04/23 08:58:23;;;;;;;7.57;5.38;;;;;;;40.49;9.72;98688.47;5064433;28;45499;-82
2021/04/23 09:00:49;;;;;;;5.30;4.70;;;;;;;39.88;11.01;98698.25;5065142;27;45523;-81
2021/04/23 09:03:20;;;;;;;5.70;4.90;;;;;;;40.58;9.50;98693.91;5070239;28;45486;-83
2021/04/23 09:06:13;;;;;;;7.18;4.45;;;;;;;40.49;10.54;98694.84;5061836;27;45317;-82
2021/04/23 09:08:50;;;;;;;7.30;5.90;;;;;;;40.18;9.20;98696.16;5075337;28;45628;-81
2021/04/23 09:11:17;;;;;;;8.73;5.15;;;;;;;41.54;9.35;98692.63;5065438;28;45239;-82
2021/04/23 09:13:58;;;;;;;7.07;6.03;;;;;;;40.54;8.81;98691.84;5076733;28;45562;-82
2021/04/23 09:16:45;;;;;;;11.88;5.55;;;;;;;39.95;9.38;98698.50;5060604;28;45351;-82
2021/04/23 09:19:44;;;;;;;9.23;6.60;;;;;;;39.37;9.32;98696.34;5066377;28;45371;-83
2021/04/23 09:22:32;;;;;;;8.45;6.10;;;;;;;40.13;10.24;98686.03;5068358;28;45465;-83
2021/04/23 09:24:58;;;;;;;7.78;5.55;;;;;;;40.22;9.73;98688.75;5066498;27;46270;-80
2021/04/23 09:27:29;;;;;;;11.95;6.97;;;;;;;39.80;9.60;98694.41;5067250;28;45376;-80
2021/04/23 09:30:01;;;;;;;11.02;7.18;;;;;;;39.50;9.23;98683.31;5065966;28;45281;-82
2021/04/23 09:32:29;;;;;;;8.02;6.88;;;;;;;37.65;10.50;98676.41;5072430;27;45425;-81
2021/04/23 09:35:01;;;;;;;10.55;8.30;;;;;;;34.19;13.11;98679.97;5071594;27;46247;-82
2021/04/23 09:37:29;;;;;;;12.45;9.27;;;;;;;31.47;15.69;98664.25;5070706;27;45322;-81
2021/04/23 09:40:31;;;;;;;10.27;6.40;;;;;;;29.37;17.58;98669.41;5061405;28;45557;-83
2021/04/23 09:43:02;;;;;;;12.00;8.45;;;;;;;27.34;19.92;98660.03;5057295;28;45511;-76
2021/04/23 09:45:30;;;;;;;11.07;7.30;;;;;;;27.07;21.00;98660.81;5074502;28;46493;-73
2021/04/23 09:47:57;;;;;;;7.95;6.20;;;;;;;26.77;21.43;98657.41;5061006;28;45470;-84
2021/04/23 09:50:30;;;;;;;9.85;7.28;;;;;;;25.85;23.62;98662.28;5067590;28;45485;-87
2021/04/23 09:52:58;;;;;;;8.98;6.43;;;;;;;25.01;25.89;98654.44;5059844;28;45353;-84
2021/04/23 09:55:29;;;;;;;9.18;6.78;;;;;;;24.00;26.45;98652.72;5060897;28;45266;-86
2021/04/23 09:58:06;;;;;;;9.80;6.65;;;;;;;24.44;26.78;98653.22;5059612;28;45704;-89
2021/04/23 10:00:35;;;;;;;7.82;6.22;;;;;;;24.37;26.09;98649.78;5082607;28;45285;-89
2021/04/23 10:03:03;;;;;;;9.10;6.67;;;;;;;23.87;28.47;98651.84;5061643;28;45470;-78
2021/04/23 10:05:33;;;;;;;8.52;5.85;;;;;;;23.79;28.12;98656.75;5063397;28;47129;-80
2021/04/23 10:08:00;;;;;;;10.95;7.55;;;;;;;24.21;27.03;98654.03;5078652;28;45513;-88
2021/04/23 10:10:27;;;;;;;8.30;5.82;;;;;;;24.08;28.72;98640.69;5061723;28;45525;-84
2021/04/23 10:13:02;;;;;;;9.38;5.97;;;;;;;23.40;26.59;98635.41;5073020;27;45348;-83
2021/04/23 10:15:33;;;;;;;10.90;5.90;;;;;;;23.10;29.24;98631.63;5067105;27;46578;-88
2021/04/23 10:18:04;;;;;;;10.15;5.80;;;;;;;23.42;27.72;98633.31;5082085;27;45487;-87
2021/04/23 10:20:32;;;;;;;7.93;5.15;;;;;;;22.87;27.04;98626.91;5079193;28;45426;-81
2021/04/23 10:22:59;;;;;;;6.10;4.82;;;;;;;23.15;28.40;98629.06;5069156;28;45597;-88
2021/04/23 10:25:26;;;;;;;6.85;5.57;;;;;;;23.15;29.86;98626.34;5071762;28;47860;-82
2021/04/23 10:27:53;;;;;;;8.18;5.40;;;;;;;23.08;27.62;98628.31;5061078;28;45435;-84
2021/04/23 10:30:25;;;;;;;7.43;4.80;;;;;;;22.94;29.28;98616.78;5059790;28;45399;-86
2021/04/23 10:32:53;;;;;;;6.70;5.10;;;;;;;23.15;28.71;98626.34;5067047;28;45484;-77
2021/04/23 10:35:20;;;;;;;6.78;5.05;;;;;;;23.30;29.73;98617.78;5076471;27;46167;-82
2021/04/23 10:37:47;;;;;;;9.73;5.30;;;;;;;22.71;31.64;98620.19;5075919;28;45463;-86
2021/04/23 10:40:15;;;;;;;7.22;5.25;;;;;;;22.48;30.27;98624.41;5076447;27;45565;-84
2021/04/23 10:42:51;;;;;;;7.28;4.85;;;;;;;22.90;29.89;98615.59;5070463;27;45498;-86
2021/04/23 10:45:35;;;;;;;5.03;3.65;;;;;;;22.58;28.49;98619.28;5063357;28;47312;-85
2021/04/23 10:48:04;;;;;;;5.75;3.63;;;;;;;22.46;27.48;98615.69;5062537;28;45514;-84
2021/04/23 10:50:53;;;;;;;7.63;5.97;;;;;;;22.12;30.21;98615.97;5070545;28;45529;-82
2021/04/23 10:53:25;;;;;;;9.30;5.15;;;;;;;22.47;29.62;98611.06;5059958;28;45387;-82
2021/04/23 10:55:51;;;;;;;7.65;4.90;;;;;;;22.28;31.29;98611.03;5059525;28;45396;-79
2021/04/23 10:58:38;;;;;;;7.85;4.60;;;;;;;22.25;29.63;98604.19;5070638;28;45380;-84
2021/04/23 11:01:22;;;;;;;5.63;4.05;;;;;;;22.02;31.65;98605.63;5067413;28;45416;-83
2021/04/23 11:04:08;;;;;;;4.88;4.22;;;;;;;22.08;29.96;98613.91;5079012;28;45808;-86
2021/04/23 11:06:49;;;;;;;6.55;4.80;;;;;;;22.00;30.27;98604.22;5061003;28;47219;-78
2021/04/23 11:09:17;;;;;;;6.03;4.10;;;;;;;21.89;30.05;98597.63;5076876;28;45308;-81
2021/04/23 11:12:04;;;;;;;7.00;4.90;;;;;;;21.92;30.74;98593.66;5060694;28;45310;-80
2021/04/23 11:14:32;;;;;;;8.98;4.63;;;;;;;21.29;32.02;98602.41;5105754;27;45454;-86
2021/04/23 11:17:19;;;;;;;6.53;3.38;;;;;;;21.43;30.38;98589.63;5070813;27;45678;-86
2021/04/23 11:19:44;;;;;;;9.25;4.07;;;;;;;21.53;30.48;98591.03;5065643;28;45333;-75
2021/04/23 11:22:14;;;;;;;4.72;3.05;;;;;;;21.65;29.70;98583.03;5068424;27;45377;-88
2021/04/23 11:24:58;;;;;;;4.53;3.30;;;;;;;21.25;30.50;98576.03;5061936;28;45508;-86
2021/04/23 11:27:24;;;;;;;5.32;3.53;;;;;;;20.99;30.30;98567.00;5062956;28;46451;-85
2021/04/23 11:29:52;;;;;;;4.45;3.38;;;;;;;20.88;32.39;98573.09;5070854;27;45478;-82
2021/04/23 11:32:26;;;;;;;6.22;3.53;;;;;;;20.85;32.99;98563.56;5057899;28;45532;-79
2021/04/23 11:34:53;;;;;;;6.32;3.50;;;;;;;20.95;30.90;98566.63;5059508;27;45614;-82
2021/04/23 11:37:22;;;;;;;4.72;2.78;;;;;;;21.10;31.86;98566.31;5063728;28;47676;-82
2021/04/23 11:39:51;;;;;;;3.95;2.80;;;;;;;20.94;31.63;98564.13;5074399;27;45722;-82
2021/04/23 11:42:21;;;;;;;5.20;3.53;;;;;;;20.71;30.22;98566.25;5070639;28;45432;-80